X  Lukk Metar værinformasjon om luftfart     ENZV Stavanger Airport, Sola
Temperatur
5°C Temperatur
2°C Duggpunkt
81% Luftfuktighet



Vind
3 M/S
7 MPT
11 KM/T
6 KNP



340°
NNV
Nåværende forhold

Delvis overskyet Delvis overskyet
Trykk 1006.77 (hPa) - 29.73 (inHg)
Sikt 6 (mil) - 9.7 (km)
Flyplass
Flyplass-kode ENZV

Plassering: Stavanger Airport, Sola
Avstand: 15 (km)

Metar:
ENZV 170150Z AUTO 34006KT 9999 FEW046/// 05/02 Q1007

Tid: 17-04-2024 01:50 CEST